Time;durP1;ratioP1;P1;durP2;ratioP2;P2;SDS_P1;SDS_P2;PMS_P1;PMS_P2;Temp;Humidity;BMP_temperature;BMP_pressure;BME280_temperature;BME280_humidity;BME280_pressure;Samples;Min_cycle;Max_cycle;Signal;HPM_P1;HPM_P2
2023/07/10 00:00:27;;;;;;;105.07;50.25;;;18.70;99.90;;;;;;5033973;28;20092;-74
2023/07/10 00:02:55;;;;;;;84.32;39.63;;;18.60;99.90;;;;;;5033490;28;20067;-74
2023/07/10 00:05:21;;;;;;;52.92;29.27;;;18.50;99.90;;;;;;5034249;28;20038;-74
2023/07/10 00:07:53;;;;;;;59.42;31.17;;;18.50;99.90;;;;;;5033142;28;20045;-74
2023/07/10 00:10:18;;;;;;;65.68;32.92;;;18.50;99.90;;;;;;5034169;28;20057;-74
2023/07/10 00:12:50;;;;;;;60.05;30.38;;;18.50;99.90;;;;;;5032822;28;20049;-74
2023/07/10 00:15:21;;;;;;;48.47;28.55;;;18.50;99.90;;;;;;5032748;28;20058;-74
2023/07/10 00:17:51;;;;;;;48.83;26.33;;;18.50;99.90;;;;;;5032755;28;20045;-74
2023/07/10 00:20:25;;;;;;;47.85;26.15;;;18.40;99.90;;;;;;5032960;28;20045;-74
2023/07/10 00:22:51;;;;;;;47.85;23.73;;;18.40;99.90;;;;;;5034105;28;20037;-74
2023/07/10 00:25:18;;;;;;;34.17;18.38;;;18.30;99.90;;;;;;5039265;28;20053;-74
2023/07/10 00:27:49;;;;;;;32.45;17.63;;;18.30;99.90;;;;;;5032513;28;20045;-74
2023/07/10 00:30:23;;;;;;;33.05;16.95;;;18.20;99.90;;;;;;5032541;28;20053;-74
2023/07/10 00:32:54;;;;;;;30.73;14.80;;;18.20;99.90;;;;;;5033688;28;20045;-74
2023/07/10 00:35:27;;;;;;;33.15;16.30;;;18.20;99.90;;;;;;5033787;28;20128;-74
2023/07/10 00:38:01;;;;;;;28.38;16.05;;;18.20;99.90;;;;;;5033786;28;20045;-74
2023/07/10 00:40:32;;;;;;;23.75;14.48;;;18.20;99.90;;;;;;5032704;28;20053;-74
2023/07/10 00:43:02;;;;;;;23.75;13.50;;;18.20;99.90;;;;;;5033709;28;20069;-74
2023/07/10 00:45:29;;;;;;;20.33;10.90;;;18.20;99.90;;;;;;5032112;28;20089;-74
2023/07/10 00:48:09;;;;;;;20.80;10.77;;;18.10;99.90;;;;;;5032333;28;20049;-74
2023/07/10 00:50:39;;;;;;;15.40;8.20;;;18.10;99.90;;;;;;5033593;28;20045;-74
2023/07/10 00:53:13;;;;;;;14.80;7.18;;;18.10;99.90;;;;;;5032003;28;20076;-74
2023/07/10 00:55:46;;;;;;;13.63;5.95;;;18.10;99.90;;;;;;5032291;28;20136;-74
2023/07/10 00:58:15;;;;;;;;;;;18.10;99.90;;;;;;5032712;28;20070;-74
2023/07/10 01:01:00;;;;;;;13.65;5.57;;;18.10;99.90;;;;;;5032386;28;19987;-74
2023/07/10 01:03:26;;;;;;;9.93;4.75;;;18.10;99.90;;;;;;5032179;28;20045;-74
2023/07/10 01:05:51;;;;;;;9.98;4.70;;;18.10;99.90;;;;;;5033374;28;20048;-74
2023/07/10 01:11:46;;;;;;;;;;;;;;;;;;;;;
2023/07/10 01:15:09;;;;;;;;;;;;;;;;;;;;;
2023/07/10 01:25:54;;;;;;;8.35;3.47;;;18.10;99.90;;;;;;4953083;28;20060;-74
2023/07/10 01:29:38;;;;;;;;;;;;;;;;;;;;;
2023/07/10 01:32:38;;;;;;;7.18;3.22;;;18.10;99.90;;;;;;4917352;28;20066;-75
2023/07/10 01:35:51;;;;;;;10.48;2.90;;;18.00;99.90;;;;;;4971787;28;20066;-74
2023/07/10 01:43:11;;;;;;;12.18;3.00;;;18.10;99.90;;;;;;4940616;28;20070;-74
2023/07/10 01:46:50;;;;;;;;;;;;;;;;;;;;;
2023/07/10 02:23:02;;;;;;;;;;;;;;;;;;;;;
2023/07/10 02:26:48;;;;;;;;;;;;;;;;;;;;;
2023/07/10 02:30:10;;;;;;;;;;;;;;;;;;;;;
2023/07/10 02:33:43;;;;;;;6.85;2.92;;;18.00;99.90;;;;;;4913432;29;20048;-74
2023/07/10 02:55:57;;;;;;;7.50;2.50;;;17.90;99.90;;;;;;5577713;22;20052;-74
2023/07/10 04:09:19;;;;;;;8.52;3.72;;;17.40;99.90;;;;;;5132391;27;20043;-74
2023/07/10 04:11:45;;;;;;;10.50;4.32;;;17.40;99.90;;;;;;5116594;27;20138;-74
2023/07/10 04:14:10;;;;;;;8.80;4.60;;;17.40;99.90;;;;;;5116606;27;20134;-74
2023/07/10 04:16:36;;;;;;;11.35;4.45;;;17.50;99.90;;;;;;5110251;22;20151;-74
2023/07/10 04:19:02;;;;;;;12.15;5.05;;;17.60;99.90;;;;;;5096234;28;20043;-74
2023/07/10 04:21:29;;;;;;;10.23;5.43;;;17.50;99.90;;;;;;5096398;28;20073;-75
2023/07/10 04:23:56;;;;;;;9.73;4.78;;;17.60;99.90;;;;;;5114461;28;20035;-75
2023/07/10 04:26:24;;;;;;;9.95;4.75;;;17.60;99.90;;;;;;5095980;28;20087;-74
2023/07/10 04:28:52;;;;;;;12.40;5.40;;;17.70;99.90;;;;;;5113818;28;20039;-75
2023/07/10 04:31:19;;;;;;;7.82;4.63;;;17.70;99.90;;;;;;5095830;28;20108;-75
2023/07/10 04:33:45;;;;;;;9.57;5.00;;;17.70;99.90;;;;;;5095857;28;20093;-74
2023/07/10 04:36:12;;;;;;;11.93;5.40;;;17.70;99.90;;;;;;5114289;28;20127;-75
2023/07/10 04:38:37;;;;;;;10.18;4.60;;;17.70;99.90;;;;;;5114031;28;20497;-75
2023/07/10 04:41:05;;;;;;;8.60;4.93;;;17.80;99.90;;;;;;5095825;28;20052;-75
2023/07/10 04:43:32;;;;;;;8.95;4.57;;;17.80;99.90;;;;;;5114092;28;20035;-75
2023/07/10 04:46:00;;;;;;;10.82;4.93;;;17.80;99.90;;;;;;5114111;28;20097;-75
2023/07/10 04:48:26;;;;;;;10.07;4.93;;;17.80;99.90;;;;;;5095975;28;20043;-75
2023/07/10 04:50:53;;;;;;;6.03;3.95;;;17.90;99.90;;;;;;5095566;28;20048;-75
2023/07/10 04:53:20;;;;;;;9.88;4.60;;;17.80;99.90;;;;;;5095568;28;20036;-75
2023/07/10 04:55:48;;;;;;;10.27;4.60;;;17.80;99.90;;;;;;5095613;28;20035;-75
2023/07/10 04:58:14;;;;;;;7.82;4.93;;;17.80;99.90;;;;;;5095805;28;20040;-75
2023/07/10 05:00:40;;;;;;;8.15;5.07;;;17.90;99.90;;;;;;5112777;28;20403;-75
2023/07/10 05:03:06;;;;;;;9.40;4.70;;;17.80;99.90;;;;;;5114072;28;20031;-75
2023/07/10 05:05:32;;;;;;;9.75;5.22;;;17.70;99.90;;;;;;5112569;28;20039;-75
2023/07/10 05:07:59;;;;;;;9.75;4.78;;;17.80;99.90;;;;;;5095726;28;20433;-75
2023/07/10 05:10:25;;;;;;;14.27;6.15;;;17.80;99.90;;;;;;5095435;28;20044;-75
2023/07/10 05:12:51;;;;;;;11.95;5.35;;;17.80;99.90;;;;;;5113684;28;20070;-75
2023/07/10 05:15:16;;;;;;;13.15;5.07;;;17.80;99.90;;;;;;5095521;28;20045;-76
2023/07/10 05:17:43;;;;;;;10.80;5.10;;;17.90;99.90;;;;;;5113933;28;20131;-75
2023/07/10 05:20:09;;;;;;;9.65;4.90;;;17.90;99.90;;;;;;5095398;28;20044;-75
2023/07/10 05:22:38;;;;;;;8.55;5.18;;;17.90;99.90;;;;;;5095633;28;20050;-75
2023/07/10 05:25:04;;;;;;;10.63;5.85;;;17.90;99.90;;;;;;5112630;28;20044;-75
2023/07/10 05:27:30;;;;;;;8.23;4.70;;;18.00;99.90;;;;;;5113550;28;20471;-75
2023/07/10 05:29:55;;;;;;;11.20;5.25;;;18.10;99.90;;;;;;5113643;28;20054;-75
2023/07/10 05:32:21;;;;;;;14.35;5.18;;;18.10;99.90;;;;;;5095582;28;20093;-75
2023/07/10 05:34:47;;;;;;;11.65;5.30;;;18.00;99.90;;;;;;5095430;28;20372;-75
2023/07/10 05:37:12;;;;;;;14.48;5.78;;;18.00;99.90;;;;;;5095426;28;20402;-75
2023/07/10 05:39:38;;;;;;;12.57;5.38;;;18.00;99.90;;;;;;5098058;28;20043;-75
2023/07/10 05:42:06;;;;;;;10.68;6.00;;;18.00;99.90;;;;;;5117234;28;20054;-75
2023/07/10 05:44:32;;;;;;;11.77;5.82;;;18.00;99.90;;;;;;5099015;28;20056;-75
2023/07/10 05:46:57;;;;;;;11.88;5.68;;;18.00;99.90;;;;;;5099363;28;20048;-75
2023/07/10 05:49:26;;;;;;;9.20;5.40;;;18.10;99.90;;;;;;5099110;28;20390;-75
2023/07/10 05:51:53;;;;;;;11.88;5.60;;;18.10;99.90;;;;;;5099183;28;20039;-75
2023/07/10 05:54:19;;;;;;;11.95;5.32;;;18.10;99.90;;;;;;5116159;28;20127;-75
2023/07/10 05:56:46;;;;;;;11.80;6.00;;;18.10;99.90;;;;;;5117306;28;20048;-76
2023/07/10 05:59:15;;;;;;;13.30;6.32;;;18.30;99.90;;;;;;5098752;28;20035;-75
2023/07/10 06:01:41;;;;;;;16.30;6.18;;;18.50;99.90;;;;;;5098749;28;20050;-75
2023/07/10 06:04:07;;;;;;;12.25;6.10;;;18.70;99.90;;;;;;5098772;28;20044;-75
2023/07/10 06:06:33;;;;;;;13.95;5.82;;;18.90;99.90;;;;;;5117108;28;20126;-76
2023/07/10 06:08:58;;;;;;;12.80;6.38;;;19.10;99.90;;;;;;5116858;28;20134;-75
2023/07/10 06:11:24;;;;;;;13.52;5.28;;;19.20;99.90;;;;;;5116772;28;20048;-76
2023/07/10 06:13:50;;;;;;;13.10;5.60;;;19.50;99.90;;;;;;5098704;28;20040;-76
2023/07/10 06:16:15;;;;;;;12.65;5.63;;;19.70;99.90;;;;;;5116733;28;20058;-75
2023/07/10 06:18:41;;;;;;;12.77;5.85;;;19.80;99.90;;;;;;5098506;28;20043;-75
2023/07/10 06:21:09;;;;;;;15.45;5.22;;;20.00;99.90;;;;;;5098479;28;20061;-75
2023/07/10 06:23:34;;;;;;;11.75;4.60;;;20.00;99.90;;;;;;5098479;28;20130;-75
2023/07/10 06:26:01;;;;;;;12.55;5.45;;;20.00;99.90;;;;;;5116553;28;20583;-76
2023/07/10 06:28:30;;;;;;;12.32;4.70;;;20.20;99.90;;;;;;5098243;28;20071;-75
2023/07/10 06:31:00;;;;;;;10.50;4.13;;;20.30;99.90;;;;;;5098156;28;20059;-75
2023/07/10 06:33:27;;;;;;;13.88;4.28;;;20.50;99.90;;;;;;5098322;28;20123;-75
2023/07/10 06:35:53;;;;;;;11.73;4.10;;;20.50;99.90;;;;;;5098333;28;20047;-79
2023/07/10 06:38:19;;;;;;;8.35;3.40;;;20.60;99.90;;;;;;5096698;28;20108;-77
2023/07/10 06:40:47;;;;;;;10.20;3.72;;;20.90;99.90;;;;;;5098099;28;20067;-86
2023/07/10 06:43:12;;;;;;;8.18;3.30;;;20.90;99.90;;;;;;5097766;28;20266;-75
2023/07/10 06:45:39;;;;;;;8.65;3.75;;;20.90;99.90;;;;;;5097949;28;20104;-74
2023/07/10 06:48:06;;;;;;;11.23;2.97;;;21.00;99.90;;;;;;5097639;28;20040;-76
2023/07/10 06:50:31;;;;;;;10.85;3.00;;;21.10;99.90;;;;;;5096692;28;20418;-77
2023/07/10 06:52:57;;;;;;;8.23;2.85;;;21.30;99.90;;;;;;5097830;28;20044;-77
2023/07/10 06:55:22;;;;;;;9.07;2.70;;;21.20;99.90;;;;;;5097836;28;20052;-77
2023/07/10 06:57:48;;;;;;;9.63;2.70;;;21.20;99.90;;;;;;5097816;28;20490;-78
2023/07/10 07:00:17;;;;;;;10.98;3.08;;;21.10;99.90;;;;;;5097408;28;20048;-76
2023/07/10 07:02:43;;;;;;;8.68;3.13;;;21.20;99.90;;;;;;5097629;28;20044;-75
2023/07/10 07:05:11;;;;;;;8.20;2.88;;;21.30;99.90;;;;;;5097554;28;20048;-75
2023/07/10 07:07:38;;;;;;;9.00;2.35;;;21.40;99.90;;;;;;5097618;28;20043;-75
2023/07/10 07:10:14;;;;;;;13.27;2.92;;;21.50;99.90;;;;;;5097415;28;20063;-75
2023/07/10 07:12:41;;;;;;;7.00;2.35;;;21.50;99.90;;;;;;5097559;28;20052;-74
2023/07/10 07:15:08;;;;;;;7.35;2.50;;;21.40;99.90;;;;;;5096871;28;20039;-76
2023/07/10 07:17:34;;;;;;;9.07;2.95;;;21.60;99.90;;;;;;5097108;28;20094;-75
2023/07/10 07:20:00;;;;;;;9.88;2.85;;;21.70;99.90;;;;;;5097041;28;20411;-76
2023/07/10 07:22:26;;;;;;;7.60;2.95;;;21.90;99.90;;;;;;5097017;28;20511;-76
2023/07/10 07:24:52;;;;;;;10.35;2.50;;;21.90;99.90;;;;;;5097173;28;20040;-76
2023/07/10 07:27:17;;;;;;;8.00;3.05;;;22.00;99.90;;;;;;5115404;28;20122;-76
2023/07/10 07:29:43;;;;;;;9.75;2.60;;;22.00;99.90;;;;;;5096738;28;20044;-75
2023/07/10 07:32:12;;;;;;;10.50;3.13;;;22.20;99.90;;;;;;5115408;28;20071;-76
2023/07/10 07:34:37;;;;;;;8.07;2.58;;;22.10;99.90;;;;;;5096863;28;20039;-75
2023/07/10 07:37:04;;;;;;;10.57;2.80;;;21.80;99.90;;;;;;5096736;28;20080;-76
2023/07/10 07:39:31;;;;;;;14.13;3.60;;;21.80;99.90;;;;;;5114995;28;20115;-75
2023/07/10 07:41:58;;;;;;;9.40;3.45;;;21.80;99.90;;;;;;5114859;28;20509;-76
2023/07/10 07:44:24;;;;;;;9.50;2.63;;;21.60;99.90;;;;;;5096550;28;20044;-76
2023/07/10 07:46:49;;;;;;;9.13;2.60;;;21.50;99.90;;;;;;5096715;28;20115;-76
2023/07/10 07:49:15;;;;;;;9.88;2.90;;;21.50;99.90;;;;;;5096420;28;20040;-76
2023/07/10 07:51:41;;;;;;;10.23;2.78;;;21.60;99.90;;;;;;5114806;28;20050;-79
2023/07/10 07:54:12;;;;;;;11.00;2.80;;;21.90;99.90;;;;;;5096412;28;20040;-77
2023/07/10 07:56:38;;;;;;;10.85;3.00;;;22.00;99.90;;;;;;5079437;28;20513;-78
2023/07/10 07:59:04;;;;;;;12.68;3.25;;;22.20;99.90;;;;;;5096649;28;20075;-77
2023/07/10 08:01:30;;;;;;;8.02;3.00;;;22.40;99.90;;;;;;5114429;28;20040;-78
2023/07/10 08:03:56;;;;;;;11.27;2.83;;;22.20;99.90;;;;;;5096229;28;20093;-78
2023/07/10 08:06:26;;;;;;;9.68;2.92;;;22.10;99.90;;;;;;5096493;28;20043;-78
2023/07/10 08:08:51;;;;;;;7.10;2.85;;;22.10;99.90;;;;;;5096647;28;20379;-76
2023/07/10 08:11:17;;;;;;;11.60;3.10;;;22.10;99.90;;;;;;5096039;28;20061;-77
2023/07/10 08:13:43;;;;;;;11.00;3.50;;;22.20;99.90;;;;;;5096438;28;20044;-76
2023/07/10 08:16:09;;;;;;;11.50;2.83;;;22.30;99.90;;;;;;5113887;28;20066;-76
2023/07/10 08:18:34;;;;;;;11.98;2.97;;;22.40;99.90;;;;;;5095960;28;20048;-75
2023/07/10 08:21:06;;;;;;;8.05;2.78;;;22.70;99.90;;;;;;5096167;28;20048;-77
2023/07/10 08:23:31;;;;;;;8.45;3.03;;;22.70;99.90;;;;;;5095998;28;20073;-78
2023/07/10 08:25:57;;;;;;;9.63;3.20;;;22.90;99.90;;;;;;5114293;28;20043;-78
2023/07/10 08:28:23;;;;;;;8.60;2.40;;;22.80;99.90;;;;;;5095284;28;20051;-78
2023/07/10 08:30:48;;;;;;;9.52;3.53;;;22.90;99.90;;;;;;5095541;28;20046;-79
2023/07/10 08:33:16;;;;;;;9.07;3.33;;;23.10;99.90;;;;;;5096306;28;20195;-77
2023/07/10 08:35:42;;;;;;;9.63;2.88;;;23.20;99.90;;;;;;5113928;28;20467;-77
2023/07/10 08:38:08;;;;;;;9.93;2.75;;;23.20;99.90;;;;;;5095957;28;20044;-76
2023/07/10 08:40:40;;;;;;;8.80;3.22;;;23.30;99.90;;;;;;5095654;28;20059;-78
2023/07/10 08:43:17;;;;;;;8.40;3.17;;;23.30;99.90;;;;;;5095868;28;20055;-79
2023/07/10 08:45:46;;;;;;;9.63;3.17;;;23.50;99.90;;;;;;5095543;28;20142;-78
2023/07/10 08:48:38;;;;;;;8.93;3.05;;;23.50;99.90;;;;;;5095578;28;20127;-79
2023/07/10 08:51:45;;;;;;;10.37;3.00;;;23.50;99.90;;;;;;5095563;28;20053;-78
2023/07/10 08:54:18;;;;;;;11.15;2.97;;;23.50;99.90;;;;;;5105276;28;20583;-78
2023/07/10 08:56:46;;;;;;;9.48;3.85;;;23.40;99.90;;;;;;5114031;28;20063;-78
2023/07/10 09:00:04;;;;;;;11.93;3.58;;;23.40;99.90;;;;;;5113556;28;20127;-78
2023/07/10 09:02:48;;;;;;;9.68;3.20;;;23.50;99.90;;;;;;5078860;28;20483;-79
2023/07/10 09:05:23;;;;;;;11.05;3.63;;;23.40;99.90;;;;;;5095471;28;20083;-77
2023/07/10 09:07:49;;;;;;;11.45;3.42;;;23.60;99.90;;;;;;5113845;28;20039;-80
2023/07/10 09:10:21;;;;;;;10.20;2.83;;;23.50;99.90;;;;;;5095150;28;20043;-77
2023/07/10 09:12:55;;;;;;;14.13;3.42;;;23.40;99.90;;;;;;5095517;28;20127;-78
2023/07/10 09:15:32;;;;;;;12.55;2.88;;;23.50;99.90;;;;;;5099092;28;20034;-77
2023/07/10 09:18:02;;;;;;;10.27;3.63;;;23.50;99.90;;;;;;5099420;28;20491;-76
2023/07/10 09:20:27;;;;;;;10.75;3.05;;;23.50;99.90;;;;;;5117607;28;20043;-76
2023/07/10 09:23:03;;;;;;;7.18;2.97;;;23.70;99.90;;;;;;5099127;28;20058;-77
2023/07/10 09:25:32;;;;;;;12.85;3.83;;;23.80;99.90;;;;;;5099294;28;20048;-76
2023/07/10 09:27:58;;;;;;;12.30;3.50;;;24.00;99.90;;;;;;5099268;28;20054;-76
2023/07/10 09:30:41;;;;;;;12.52;3.53;;;24.10;99.90;;;;;;5099059;28;20510;-76
2023/07/10 09:33:11;;;;;;;8.25;3.35;;;24.00;99.90;;;;;;5099407;28;20128;-76
2023/07/10 09:35:41;;;;;;;13.00;3.63;;;23.70;99.90;;;;;;5099047;28;20096;-76
2023/07/10 09:38:11;;;;;;;10.32;3.53;;;23.70;99.90;;;;;;5099061;28;20086;-77
2023/07/10 09:40:45;;;;;;;13.88;3.65;;;23.90;99.90;;;;;;5117234;28;20047;-76
2023/07/10 09:43:17;;;;;;;11.60;3.00;;;24.00;99.90;;;;;;5099246;28;20047;-76
2023/07/10 09:45:49;;;;;;;10.77;3.90;;;24.00;99.90;;;;;;5098705;28;20554;-77
2023/07/10 09:48:39;;;;;;;17.30;5.05;;;24.00;99.90;;;;;;5098814;28;20118;-75
2023/07/10 09:51:11;;;;;;;14.25;3.72;;;23.90;99.90;;;;;;5098220;28;20070;-75
2023/07/10 09:53:45;;;;;;;10.40;3.53;;;23.70;99.90;;;;;;5099046;28;20114;-75
2023/07/10 09:56:39;;;;;;;11.02;2.92;;;23.50;99.90;;;;;;5117230;28;20039;-75
2023/07/10 09:59:32;;;;;;;11.88;3.33;;;23.50;99.90;;;;;;5116512;28;20052;-75
2023/07/10 10:02:14;;;;;;;10.40;3.55;;;23.70;99.90;;;;;;5114333;28;20059;-77
2023/07/10 10:04:42;;;;;;;9.75;2.95;;;23.50;99.90;;;;;;5099021;28;20047;-76
2023/07/10 10:07:14;;;;;;;10.35;2.97;;;23.40;99.90;;;;;;5098704;28;20040;-77
2023/07/10 10:09:40;;;;;;;16.08;3.28;;;23.50;99.90;;;;;;5098626;28;20044;-77
2023/07/10 10:12:27;;;;;;;10.50;3.42;;;23.40;99.90;;;;;;5098528;28;20044;-76
2023/07/10 10:15:02;;;;;;;10.20;3.33;;;23.30;99.90;;;;;;5098669;28;20514;-78
2023/07/10 10:17:33;;;;;;;9.35;3.30;;;23.40;99.90;;;;;;5116580;28;20059;-75
2023/07/10 10:20:14;;;;;;;11.32;3.22;;;23.40;99.90;;;;;;5098425;28;20108;-75
2023/07/10 10:22:40;;;;;;;14.27;4.03;;;23.50;99.90;;;;;;5098464;28;20444;-75
2023/07/10 10:25:15;;;;;;;12.10;3.65;;;23.70;99.90;;;;;;5115380;28;20478;-75
2023/07/10 10:27:43;;;;;;;8.65;3.08;;;23.60;99.90;;;;;;5098580;28;20052;-75
2023/07/10 10:30:38;;;;;;;14.25;3.47;;;23.50;99.90;;;;;;5098138;28;20039;-76
2023/07/10 10:33:20;;;;;;;10.25;3.80;;;23.70;99.90;;;;;;5098435;28;20120;-75
2023/07/10 10:35:56;;;;;;;13.97;3.80;;;23.80;99.90;;;;;;5098477;28;20058;-75
2023/07/10 10:38:45;;;;;;;6.85;2.60;;;23.80;99.90;;;;;;5098421;28;20304;-76
2023/07/10 10:41:38;;;;;;;9.75;2.53;;;23.70;99.90;;;;;;5116369;28;20039;-76
2023/07/10 10:44:07;;;;;;;7.70;1.95;;;23.50;99.90;;;;;;5116213;28;20078;-77
2023/07/10 10:47:24;;;;;;;8.98;1.52;;;23.70;99.90;;;;;;5098344;28;20432;-78
2023/07/10 10:50:02;;;;;;;4.90;1.48;;;23.60;99.90;;;;;;5068291;28;20549;-82
2023/07/10 10:52:31;;;;;;;8.63;2.30;;;23.30;99.90;;;;;;5097790;28;20043;-79
2023/07/10 10:55:08;;;;;;;8.88;1.67;;;23.30;99.90;;;;;;5116126;28;20436;-91
2023/07/10 10:58:44;;;;;;;7.55;1.45;;;23.30;99.90;;;;;;5097794;28;20185;-79
2023/07/10 11:01:35;;;;;;;7.28;2.17;;;23.40;99.90;;;;;;5025973;28;20067;-92
2023/07/10 11:04:46;;;;;;;4.50;1.60;;;23.50;99.90;;;;;;5036900;28;20111;-74
2023/07/10 11:07:16;;;;;;;7.80;1.52;;;23.60;99.90;;;;;;5081320;28;20066;-76
2023/07/10 11:09:56;;;;;;;3.97;1.30;;;23.70;99.90;;;;;;5115944;28;20044;-75
2023/07/10 11:12:26;;;;;;;5.70;1.80;;;23.80;99.90;;;;;;5116001;28;20116;-74
2023/07/10 11:14:56;;;;;;;6.10;1.50;;;23.90;99.90;;;;;;5097595;28;20048;-75
2023/07/10 11:17:23;;;;;;;5.72;1.63;;;23.80;99.90;;;;;;5097064;28;20052;-76
2023/07/10 11:19:50;;;;;;;5.35;1.70;;;23.80;99.90;;;;;;5115789;28;20055;-76
2023/07/10 11:22:36;;;;;;;6.82;1.80;;;23.90;99.90;;;;;;5097481;28;20394;-75
2023/07/10 11:25:02;;;;;;;5.10;1.85;;;24.10;99.90;;;;;;5114983;28;20070;-77
2023/07/10 11:27:34;;;;;;;7.88;2.22;;;24.00;99.90;;;;;;5097176;28;20490;-74
2023/07/10 11:30:12;;;;;;;7.95;1.92;;;24.00;99.90;;;;;;5097082;28;20051;-75
2023/07/10 11:33:01;;;;;;;7.63;2.10;;;24.10;99.90;;;;;;5097208;28;20048;-75
2023/07/10 11:35:28;;;;;;;8.52;2.45;;;24.00;99.90;;;;;;5115210;28;20492;-77
2023/07/10 11:38:11;;;;;;;8.13;1.92;;;24.10;99.90;;;;;;5115242;28;20048;-76
2023/07/10 11:40:38;;;;;;;8.48;2.10;;;24.20;99.90;;;;;;5115314;28;20047;-74
2023/07/10 11:43:25;;;;;;;8.65;2.50;;;24.10;99.90;;;;;;5115331;28;20061;-75
2023/07/10 11:45:53;;;;;;;7.57;1.70;;;24.10;99.90;;;;;;5096713;28;20368;-75
2023/07/10 11:48:54;;;;;;;9.82;2.78;;;24.10;99.90;;;;;;5097082;28;20035;-76
2023/07/10 11:51:28;;;;;;;7.70;2.20;;;24.20;99.90;;;;;;5115155;28;20035;-75
2023/07/10 11:54:32;;;;;;;7.03;1.80;;;24.00;99.90;;;;;;5096928;28;20126;-74
2023/07/10 11:57:12;;;;;;;8.80;2.45;;;23.80;99.90;;;;;;5084671;28;20391;-75
2023/07/10 11:59:46;;;;;;;9.07;2.10;;;23.70;99.90;;;;;;5096911;28;20050;-74
2023/07/10 12:02:31;;;;;;;9.77;2.13;;;23.80;99.90;;;;;;5096542;28;20048;-78
2023/07/10 12:05:23;;;;;;;9.73;2.25;;;23.80;99.90;;;;;;5096342;28;20467;-77
2023/07/10 12:08:01;;;;;;;10.15;1.90;;;24.00;99.90;;;;;;5081107;28;20119;-76
2023/07/10 12:10:32;;;;;;;12.52;2.88;;;24.00;99.90;;;;;;5096352;28;20040;-75
2023/07/10 12:12:59;;;;;;;10.90;2.25;;;24.00;99.90;;;;;;5096596;28;20112;-82
2023/07/10 12:15:26;;;;;;;8.38;2.33;;;24.00;99.90;;;;;;5096488;28;20066;-77
2023/07/10 12:17:54;;;;;;;11.25;2.50;;;24.10;99.90;;;;;;5096120;28;20376;-74
2023/07/10 12:20:31;;;;;;;9.38;2.03;;;24.00;99.90;;;;;;5096442;28;20386;-77
2023/07/10 12:23:06;;;;;;;7.75;2.05;;;24.10;99.90;;;;;;5096454;28;20043;-72
2023/07/10 12:25:32;;;;;;;6.90;1.90;;;24.20;99.90;;;;;;5096289;28;20051;-76
2023/07/10 12:28:10;;;;;;;8.45;2.30;;;24.30;99.90;;;;;;5096385;28;20048;-75
2023/07/10 12:30:38;;;;;;;7.30;2.25;;;24.30;99.90;;;;;;5095934;28;20115;-75
2023/07/10 12:33:18;;;;;;;9.70;2.03;;;24.30;99.90;;;;;;5114305;28;20138;-81
2023/07/10 12:35:44;;;;;;;6.97;2.45;;;24.30;99.90;;;;;;5095888;28;20192;-76
2023/07/10 12:38:11;;;;;;;11.13;2.97;;;24.20;99.90;;;;;;5114165;28;20082;-76
2023/07/10 12:40:38;;;;;;;7.55;2.15;;;24.20;99.90;;;;;;5114024;28;20035;-76
2023/07/10 12:43:26;;;;;;;11.55;2.78;;;24.30;99.90;;;;;;5095796;28;20062;-79
2023/07/10 12:46:11;;;;;;;7.32;2.67;;;24.50;99.90;;;;;;5095692;28;20122;-73
2023/07/10 12:48:38;;;;;;;8.10;2.47;;;24.60;99.90;;;;;;5095116;28;20048;-73
2023/07/10 12:51:05;;;;;;;8.65;2.72;;;24.70;99.90;;;;;;5113826;28;20395;-80
2023/07/10 12:53:38;;;;;;;8.85;2.65;;;24.60;99.90;;;;;;5095916;28;20040;-73
2023/07/10 12:56:06;;;;;;;6.95;2.22;;;24.60;99.90;;;;;;5095601;28;20054;-73
2023/07/10 12:58:32;;;;;;;7.25;1.95;;;24.60;99.90;;;;;;5095759;28;20043;-73
2023/07/10 13:01:16;;;;;;;8.27;2.50;;;24.50;99.90;;;;;;5096071;28;20044;-73
2023/07/10 13:03:42;;;;;;;8.00;2.28;;;24.40;99.90;;;;;;5114046;28;20039;-74
2023/07/10 13:06:07;;;;;;;10.70;2.67;;;24.40;99.90;;;;;;5095856;28;20372;-74
2023/07/10 13:08:40;;;;;;;8.10;2.13;;;24.40;99.90;;;;;;5114143;28;20028;-73
2023/07/10 13:11:18;;;;;;;8.98;2.40;;;24.60;99.90;;;;;;5095652;28;20048;-74
2023/07/10 13:13:44;;;;;;;8.77;3.00;;;24.60;99.90;;;;;;5114013;28;20047;-73
2023/07/10 13:16:20;;;;;;;6.85;2.38;;;24.40;99.90;;;;;;5095459;28;20059;-73
2023/07/10 13:18:46;;;;;;;6.40;1.80;;;24.60;99.90;;;;;;5114022;28;20109;-72
2023/07/10 13:21:18;;;;;;;5.32;2.10;;;24.70;99.90;;;;;;5113617;28;20491;-74
2023/07/10 13:23:44;;;;;;;7.53;2.22;;;24.60;99.90;;;;;;5095667;28;20460;-73
2023/07/10 13:26:19;;;;;;;10.70;2.22;;;24.50;99.90;;;;;;5113705;28;20535;-73
2023/07/10 13:28:45;;;;;;;8.90;2.38;;;24.30;99.90;;;;;;5113837;28;20075;-76
2023/07/10 13:31:12;;;;;;;10.70;2.22;;;24.30;99.90;;;;;;5113752;28;20057;-78
2023/07/10 13:33:38;;;;;;;6.32;1.90;;;24.30;99.90;;;;;;5113749;28;20040;-74
2023/07/10 13:36:19;;;;;;;8.68;2.00;;;24.30;99.90;;;;;;5113662;28;20054;-77
2023/07/10 13:38:46;;;;;;;10.77;2.10;;;24.30;99.90;;;;;;5095490;28;20043;-73
2023/07/10 13:41:15;;;;;;;6.97;1.70;;;24.20;99.90;;;;;;5095280;28;20075;-76
2023/07/10 13:43:40;;;;;;;9.90;1.90;;;24.10;99.90;;;;;;5095239;28;20086;-72
2023/07/10 13:46:30;;;;;;;9.57;2.63;;;23.80;99.90;;;;;;5113342;28;20071;-73
2023/07/10 13:49:01;;;;;;;10.65;1.83;;;23.60;99.90;;;;;;5113374;28;20398;-70
2023/07/10 13:51:28;;;;;;;12.43;2.60;;;23.70;99.90;;;;;;5095086;28;20083;-76
2023/07/10 13:53:55;;;;;;;9.00;1.90;;;23.70;99.90;;;;;;5112106;28;20055;-70
2023/07/10 13:56:24;;;;;;;9.65;2.33;;;23.60;99.90;;;;;;5095340;28;20394;-71
2023/07/10 13:58:51;;;;;;;9.93;2.05;;;23.50;99.90;;;;;;5095226;28;20085;-70
2023/07/10 14:01:17;;;;;;;8.68;1.70;;;23.40;99.90;;;;;;5116661;28;20044;-78
2023/07/10 14:03:45;;;;;;;9.75;1.73;;;23.30;99.90;;;;;;5117294;28;20044;-79
2023/07/10 14:06:27;;;;;;;10.10;2.00;;;23.40;99.90;;;;;;5098802;28;20131;-77
2023/07/10 14:08:55;;;;;;;6.82;1.80;;;23.50;99.90;;;;;;5117049;28;20046;-77
2023/07/10 14:11:22;;;;;;;6.97;1.38;;;23.70;99.90;;;;;;5098792;28;20075;-74
2023/07/10 14:13:48;;;;;;;6.68;1.70;;;23.70;99.90;;;;;;5098603;28;20387;-75
2023/07/10 14:16:29;;;;;;;7.13;2.10;;;23.60;99.90;;;;;;5094825;28;20672;-75
2023/07/10 14:18:56;;;;;;;6.25;1.40;;;23.70;99.90;;;;;;5112194;28;20044;-75
2023/07/10 14:21:22;;;;;;;3.55;0.85;;;23.70;99.90;;;;;;5112141;28;20111;-75
2023/07/10 14:23:48;;;;;;;3.58;1.02;;;23.90;99.90;;;;;;5112287;28;20048;-76
2023/07/10 14:26:19;;;;;;;4.72;1.20;;;23.90;99.90;;;;;;5096331;28;20043;-75
2023/07/10 14:28:45;;;;;;;3.47;0.93;;;24.00;99.90;;;;;;5112210;28;20407;-77
2023/07/10 14:31:11;;;;;;;3.17;0.98;;;24.00;99.90;;;;;;5094692;28;20044;-75
2023/07/10 14:33:37;;;;;;;4.80;1.13;;;24.00;99.90;;;;;;5112087;28;20044;-75
2023/07/10 14:36:16;;;;;;;4.85;1.20;;;24.10;99.90;;;;;;5094830;28;20102;-75
2023/07/10 14:38:43;;;;;;;5.28;1.42;;;24.00;99.90;;;;;;5096175;28;20036;-75
2023/07/10 14:41:20;;;;;;;5.90;1.42;;;24.20;99.90;;;;;;5096032;28;20044;-75
2023/07/10 14:43:46;;;;;;;9.50;1.60;;;24.10;99.90;;;;;;5094638;28;20048;-75
2023/07/10 14:46:24;;;;;;;6.82;1.42;;;24.00;99.90;;;;;;5111764;28;20059;-83
2023/07/10 14:48:50;;;;;;;8.18;2.13;;;24.00;99.90;;;;;;5094859;28;20044;-81
2023/07/10 14:51:16;;;;;;;7.72;1.77;;;23.90;99.90;;;;;;5094211;28;20407;-75
2023/07/10 14:53:41;;;;;;;6.97;1.63;;;23.90;99.90;;;;;;5095889;28;20043;-76
2023/07/10 14:56:15;;;;;;;6.22;1.20;;;24.00;99.90;;;;;;5094213;28;20040;-76
2023/07/10 14:58:41;;;;;;;11.48;2.00;;;24.00;99.90;;;;;;5094203;28;20047;-76
2023/07/10 15:01:15;;;;;;;5.75;1.23;;;24.00;99.90;;;;;;5094809;28;20039;-76
2023/07/10 15:03:40;;;;;;;7.63;1.73;;;24.00;99.90;;;;;;5095367;28;20036;-75
2023/07/10 15:06:26;;;;;;;6.60;1.50;;;24.10;99.90;;;;;;5094312;28;20047;-77
2023/07/10 15:08:52;;;;;;;5.28;1.55;;;24.00;99.90;;;;;;5094085;28;20040;-78
2023/07/10 15:11:20;;;;;;;4.97;1.45;;;24.00;99.90;;;;;;5093383;28;20487;-78
2023/07/10 15:13:45;;;;;;;6.25;1.60;;;24.00;99.90;;;;;;5095222;28;20422;-76
2023/07/10 15:16:24;;;;;;;4.15;1.50;;;23.80;99.90;;;;;;5102203;28;20055;-76
2023/07/10 15:18:52;;;;;;;6.60;1.60;;;23.60;99.90;;;;;;5097247;28;20497;-78
2023/07/10 15:21:21;;;;;;;8.13;1.75;;;23.80;99.90;;;;;;5097267;28;20438;-77
2023/07/10 15:23:47;;;;;;;7.57;2.13;;;23.70;99.90;;;;;;5114848;28;20109;-75
2023/07/10 15:26:13;;;;;;;7.43;1.85;;;23.70;99.90;;;;;;5097473;28;20417;-76
2023/07/10 15:28:39;;;;;;;14.25;2.45;;;23.70;99.90;;;;;;5097475;28;20390;-77
2023/07/10 15:31:08;;;;;;;9.07;2.08;;;23.50;99.90;;;;;;5113993;28;20054;-76
2023/07/10 15:33:36;;;;;;;12.77;2.63;;;23.50;99.90;;;;;;5114202;28;20048;-75
2023/07/10 15:36:02;;;;;;;14.13;2.70;;;23.30;99.90;;;;;;5113996;28;20050;-76
2023/07/10 15:38:29;;;;;;;11.77;2.50;;;23.20;99.90;;;;;;5115133;28;20043;-78